sensor_id;sensor_type;location;lat;lon;timestamp;pressure;altitude;pressure_sealevel;temperature;humidity
81387;BME280;70842;50.744;7.114;2023-12-22T00:02:24;99689.72;;;7.38;77.49
81387;BME280;70842;50.744;7.114;2023-12-22T00:04:52;99697.66;;;7.59;77.81
81387;BME280;70842;50.744;7.114;2023-12-22T00:07:18;99694.50;;;7.65;77.30
81387;BME280;70842;50.744;7.114;2023-12-22T00:09:46;99687.69;;;7.62;77.02
81387;BME280;70842;50.744;7.114;2023-12-22T00:12:13;99702.53;;;7.43;76.19
81387;BME280;70842;50.744;7.114;2023-12-22T00:14:39;99773.59;;;7.65;76.66
81387;BME280;70842;50.744;7.114;2023-12-22T00:17:07;99817.19;;;6.94;75.65
81387;BME280;70842;50.744;7.114;2023-12-22T00:19:33;99790.59;;;6.09;75.31
81387;BME280;70842;50.744;7.114;2023-12-22T00:22:00;99815.00;;;6.11;76.46
81387;BME280;70842;50.744;7.114;2023-12-22T00:24:26;99821.13;;;5.77;77.23
81387;BME280;70842;50.744;7.114;2023-12-22T00:26:53;99798.50;;;5.98;78.01
81387;BME280;70842;50.744;7.114;2023-12-22T00:29:19;99795.75;;;5.76;78.60
81387;BME280;70842;50.744;7.114;2023-12-22T00:31:46;99796.72;;;6.09;77.97
81387;BME280;70842;50.744;7.114;2023-12-22T00:34:13;99789.19;;;6.16;77.73
81387;BME280;70842;50.744;7.114;2023-12-22T00:36:39;99791.13;;;6.36;76.91
81387;BME280;70842;50.744;7.114;2023-12-22T00:39:06;99798.91;;;6.38;76.88
81387;BME280;70842;50.744;7.114;2023-12-22T00:41:33;99809.28;;;6.39;77.44
81387;BME280;70842;50.744;7.114;2023-12-22T00:44:00;99796.50;;;6.35;77.73
81387;BME280;70842;50.744;7.114;2023-12-22T00:46:26;99804.38;;;6.35;77.26
81387;BME280;70842;50.744;7.114;2023-12-22T00:48:53;99826.53;;;6.43;77.39
81387;BME280;70842;50.744;7.114;2023-12-22T00:51:19;99846.88;;;6.52;77.39
81387;BME280;70842;50.744;7.114;2023-12-22T00:53:46;99816.72;;;6.45;77.56
81387;BME280;70842;50.744;7.114;2023-12-22T00:56:12;99824.13;;;6.51;77.58
81387;BME280;70842;50.744;7.114;2023-12-22T00:58:40;99815.06;;;6.55;77.59
81387;BME280;70842;50.744;7.114;2023-12-22T01:01:06;99826.03;;;6.49;77.52
81387;BME280;70842;50.744;7.114;2023-12-22T01:03:33;99820.56;;;6.63;77.70
81387;BME280;70842;50.744;7.114;2023-12-22T01:06:00;99822.97;;;6.55;78.03
81387;BME280;70842;50.744;7.114;2023-12-22T01:08:26;99818.03;;;6.62;77.77
81387;BME280;70842;50.744;7.114;2023-12-22T01:10:53;99829.28;;;6.64;78.03
81387;BME280;70842;50.744;7.114;2023-12-22T01:13:19;99830.72;;;6.79;77.41
81387;BME280;70842;50.744;7.114;2023-12-22T01:15:45;99833.81;;;6.84;77.17
81387;BME280;70842;50.744;7.114;2023-12-22T01:18:12;99806.88;;;7.02;76.91
81387;BME280;70842;50.744;7.114;2023-12-22T01:20:38;99812.41;;;6.88;77.20
81387;BME280;70842;50.744;7.114;2023-12-22T01:23:05;99813.38;;;6.76;77.38
81387;BME280;70842;50.744;7.114;2023-12-22T01:25:31;99817.41;;;6.91;77.30
81387;BME280;70842;50.744;7.114;2023-12-22T01:27:58;99825.47;;;7.33;75.87
81387;BME280;70842;50.744;7.114;2023-12-22T01:30:25;99856.16;;;7.34;75.98
81387;BME280;70842;50.744;7.114;2023-12-22T01:32:52;99863.00;;;6.81;77.67
81387;BME280;70842;50.744;7.114;2023-12-22T01:35:18;99851.66;;;6.80;78.23
81387;BME280;70842;50.744;7.114;2023-12-22T01:37:45;99867.56;;;6.79;78.85
81387;BME280;70842;50.744;7.114;2023-12-22T01:40:13;99869.84;;;6.94;78.42
81387;BME280;70842;50.744;7.114;2023-12-22T01:42:40;99855.97;;;7.03;77.83
81387;BME280;70842;50.744;7.114;2023-12-22T01:45:07;99847.34;;;6.90;77.54
81387;BME280;70842;50.744;7.114;2023-12-22T01:47:34;99840.19;;;6.59;78.72
81387;BME280;70842;50.744;7.114;2023-12-22T01:50:01;99835.63;;;6.72;78.65
81387;BME280;70842;50.744;7.114;2023-12-22T01:52:27;99822.06;;;7.10;78.07
81387;BME280;70842;50.744;7.114;2023-12-22T01:54:54;99828.06;;;7.01;78.52
81387;BME280;70842;50.744;7.114;2023-12-22T01:57:22;99818.56;;;7.21;77.49
81387;BME280;70842;50.744;7.114;2023-12-22T01:59:49;99801.06;;;6.44;79.33
81387;BME280;70842;50.744;7.114;2023-12-22T02:02:16;99814.81;;;6.80;78.90
81387;BME280;70842;50.744;7.114;2023-12-22T02:04:43;99817.31;;;6.60;79.42
81387;BME280;70842;50.744;7.114;2023-12-22T02:07:11;99827.25;;;6.78;78.71
81387;BME280;70842;50.744;7.114;2023-12-22T02:09:37;99835.88;;;6.80;78.74
81387;BME280;70842;50.744;7.114;2023-12-22T02:12:04;99838.25;;;6.94;78.69
81387;BME280;70842;50.744;7.114;2023-12-22T02:14:31;99846.59;;;7.10;78.00
81387;BME280;70842;50.744;7.114;2023-12-22T02:17:11;99850.06;;;7.11;77.22
81387;BME280;70842;50.744;7.114;2023-12-22T02:19:42;99856.38;;;7.31;77.28
81387;BME280;70842;50.744;7.114;2023-12-22T02:22:10;99853.06;;;7.06;77.75
81387;BME280;70842;50.744;7.114;2023-12-22T02:24:39;99840.34;;;7.34;76.86
81387;BME280;70842;50.744;7.114;2023-12-22T02:30:11;99841.41;;;7.31;76.84
81387;BME280;70842;50.744;7.114;2023-12-22T02:32:43;99846.31;;;7.36;76.41
81387;BME280;70842;50.744;7.114;2023-12-22T02:35:13;99868.91;;;7.49;76.68
81387;BME280;70842;50.744;7.114;2023-12-22T02:37:41;99858.78;;;7.34;77.55
81387;BME280;70842;50.744;7.114;2023-12-22T02:40:09;99857.75;;;7.03;78.26
81387;BME280;70842;50.744;7.114;2023-12-22T02:42:36;99836.31;;;7.19;77.41
81387;BME280;70842;50.744;7.114;2023-12-22T02:45:05;99812.53;;;7.30;77.09
81387;BME280;70842;50.744;7.114;2023-12-22T02:47:32;99821.81;;;7.13;77.50
81387;BME280;70842;50.744;7.114;2023-12-22T02:49:59;99819.19;;;7.45;76.69
81387;BME280;70842;50.744;7.114;2023-12-22T02:52:26;99820.44;;;7.30;77.06
81387;BME280;70842;50.744;7.114;2023-12-22T02:54:52;99827.00;;;7.03;78.03
81387;BME280;70842;50.744;7.114;2023-12-22T02:57:19;99819.16;;;7.24;77.64
81387;BME280;70842;50.744;7.114;2023-12-22T02:59:45;99825.88;;;7.17;77.06
81387;BME280;70842;50.744;7.114;2023-12-22T03:02:11;99814.22;;;7.31;76.68
81387;BME280;70842;50.744;7.114;2023-12-22T03:04:38;99801.09;;;7.51;75.74
81387;BME280;70842;50.744;7.114;2023-12-22T03:07:04;99805.59;;;7.29;75.57
81387;BME280;70842;50.744;7.114;2023-12-22T03:09:31;99811.34;;;7.34;76.44
81387;BME280;70842;50.744;7.114;2023-12-22T03:12:01;99825.66;;;7.52;75.52
81387;BME280;70842;50.744;7.114;2023-12-22T03:14:29;99824.44;;;7.56;76.11
81387;BME280;70842;50.744;7.114;2023-12-22T03:16:56;99827.03;;;7.67;75.28
81387;BME280;70842;50.744;7.114;2023-12-22T03:19:22;99812.25;;;7.96;73.95
81387;BME280;70842;50.744;7.114;2023-12-22T03:21:49;99812.34;;;8.06;73.90
81387;BME280;70842;50.744;7.114;2023-12-22T03:24:15;99818.91;;;7.91;73.74
81387;BME280;70842;50.744;7.114;2023-12-22T03:26:42;99814.56;;;8.10;73.77
81387;BME280;70842;50.744;7.114;2023-12-22T03:29:08;99812.38;;;8.15;73.52
81387;BME280;70842;50.744;7.114;2023-12-22T03:31:34;99819.47;;;7.94;73.37
81387;BME280;70842;50.744;7.114;2023-12-22T03:34:01;99819.34;;;8.16;72.49
81387;BME280;70842;50.744;7.114;2023-12-22T03:36:28;99795.59;;;7.96;73.41
81387;BME280;70842;50.744;7.114;2023-12-22T03:38:54;99804.72;;;7.92;73.59
81387;BME280;70842;50.744;7.114;2023-12-22T03:41:21;99811.88;;;8.21;72.86
81387;BME280;70842;50.744;7.114;2023-12-22T03:43:47;99823.88;;;8.25;72.08
81387;BME280;70842;50.744;7.114;2023-12-22T03:46:13;99829.97;;;8.05;72.53
81387;BME280;70842;50.744;7.114;2023-12-22T03:48:40;99821.78;;;8.08;72.23
81387;BME280;70842;50.744;7.114;2023-12-22T03:51:06;99826.84;;;8.21;72.37
81387;BME280;70842;50.744;7.114;2023-12-22T03:53:33;99822.38;;;8.32;72.22
81387;BME280;70842;50.744;7.114;2023-12-22T03:56:00;99835.91;;;8.18;72.27
81387;BME280;70842;50.744;7.114;2023-12-22T03:58:26;99831.38;;;8.09;71.91
81387;BME280;70842;50.744;7.114;2023-12-22T04:00:53;99845.69;;;8.27;71.79
81387;BME280;70842;50.744;7.114;2023-12-22T04:03:19;99843.28;;;8.24;72.00
81387;BME280;70842;50.744;7.114;2023-12-22T04:05:46;99846.66;;;8.06;70.81
81387;BME280;70842;50.744;7.114;2023-12-22T04:08:12;99855.28;;;8.28;70.82
81387;BME280;70842;50.744;7.114;2023-12-22T04:10:38;99833.38;;;7.96;70.98
81387;BME280;70842;50.744;7.114;2023-12-22T04:13:05;99854.41;;;8.07;71.82
81387;BME280;70842;50.744;7.114;2023-12-22T04:15:31;99855.88;;;8.00;71.84
81387;BME280;70842;50.744;7.114;2023-12-22T04:17:58;99836.19;;;8.04;70.54
81387;BME280;70842;50.744;7.114;2023-12-22T04:20:24;99851.06;;;8.05;70.26
81387;BME280;70842;50.744;7.114;2023-12-22T04:22:50;99847.03;;;8.01;70.11
81387;BME280;70842;50.744;7.114;2023-12-22T04:25:17;99856.22;;;8.07;69.57
81387;BME280;70842;50.744;7.114;2023-12-22T04:27:44;99853.59;;;7.75;70.39
81387;BME280;70842;50.744;7.114;2023-12-22T04:30:11;99853.09;;;8.02;69.26
81387;BME280;70842;50.744;7.114;2023-12-22T04:32:38;99846.31;;;7.99;69.75
81387;BME280;70842;50.744;7.114;2023-12-22T04:35:04;99859.13;;;8.04;70.10
81387;BME280;70842;50.744;7.114;2023-12-22T04:37:31;99840.75;;;8.02;69.39
81387;BME280;70842;50.744;7.114;2023-12-22T04:39:57;99856.94;;;7.77;70.75
81387;BME280;70842;50.744;7.114;2023-12-22T04:42:24;99850.97;;;7.75;70.95
81387;BME280;70842;50.744;7.114;2023-12-22T04:44:52;99859.00;;;7.73;71.73
81387;BME280;70842;50.744;7.114;2023-12-22T04:47:18;99849.34;;;7.63;71.60
81387;BME280;70842;50.744;7.114;2023-12-22T04:49:45;99846.94;;;7.60;71.78
81387;BME280;70842;50.744;7.114;2023-12-22T04:52:11;99853.44;;;7.56;72.17
81387;BME280;70842;50.744;7.114;2023-12-22T04:54:38;99853.03;;;7.71;71.89
81387;BME280;70842;50.744;7.114;2023-12-22T04:57:05;99846.69;;;7.74;71.59
81387;BME280;70842;50.744;7.114;2023-12-22T04:59:31;99857.41;;;7.50;72.35
81387;BME280;70842;50.744;7.114;2023-12-22T05:01:58;99842.22;;;7.43;72.46
81387;BME280;70842;50.744;7.114;2023-12-22T05:04:24;99845.22;;;7.70;71.96
81387;BME280;70842;50.744;7.114;2023-12-22T05:06:51;99855.66;;;7.71;72.77
81387;BME280;70842;50.744;7.114;2023-12-22T05:09:17;99866.59;;;7.67;72.98
81387;BME280;70842;50.744;7.114;2023-12-22T05:11:43;99879.94;;;7.86;72.85
81387;BME280;70842;50.744;7.114;2023-12-22T05:14:10;99866.06;;;8.05;72.63
81387;BME280;70842;50.744;7.114;2023-12-22T05:16:37;99862.56;;;8.04;72.54
81387;BME280;70842;50.744;7.114;2023-12-22T05:19:04;99856.47;;;8.24;72.05
81387;BME280;70842;50.744;7.114;2023-12-22T05:21:30;99877.84;;;8.21;72.35
81387;BME280;70842;50.744;7.114;2023-12-22T05:23:57;99875.19;;;8.21;72.16
81387;BME280;70842;50.744;7.114;2023-12-22T05:26:23;99857.16;;;8.37;72.09
81387;BME280;70842;50.744;7.114;2023-12-22T05:28:50;99878.06;;;8.29;71.73
81387;BME280;70842;50.744;7.114;2023-12-22T05:31:17;99891.84;;;8.53;71.70
81387;BME280;70842;50.744;7.114;2023-12-22T05:33:44;99891.06;;;8.42;71.98
81387;BME280;70842;50.744;7.114;2023-12-22T05:36:10;99908.25;;;8.57;71.53
81387;BME280;70842;50.744;7.114;2023-12-22T05:38:39;99887.09;;;8.47;71.56
81387;BME280;70842;50.744;7.114;2023-12-22T05:41:06;99891.31;;;8.59;71.40
81387;BME280;70842;50.744;7.114;2023-12-22T05:43:33;99925.13;;;8.65;70.77
81387;BME280;70842;50.744;7.114;2023-12-22T05:46:00;99894.72;;;8.50;70.37
81387;BME280;70842;50.744;7.114;2023-12-22T05:48:26;99896.84;;;8.77;69.19
81387;BME280;70842;50.744;7.114;2023-12-22T05:50:57;99886.91;;;8.90;68.97
81387;BME280;70842;50.744;7.114;2023-12-22T05:53:24;99895.00;;;9.08;68.03
81387;BME280;70842;50.744;7.114;2023-12-22T05:55:50;99902.13;;;9.07;67.89
81387;BME280;70842;50.744;7.114;2023-12-22T05:58:16;99899.03;;;9.02;67.44
81387;BME280;70842;50.744;7.114;2023-12-22T06:00:43;99902.38;;;9.04;66.33
81387;BME280;70842;50.744;7.114;2023-12-22T06:03:09;99884.72;;;9.05;65.71
81387;BME280;70842;50.744;7.114;2023-12-22T06:05:36;99889.09;;;8.85;65.87
81387;BME280;70842;50.744;7.114;2023-12-22T06:08:03;99890.00;;;9.05;65.15
81387;BME280;70842;50.744;7.114;2023-12-22T06:10:29;99900.50;;;9.16;65.07
81387;BME280;70842;50.744;7.114;2023-12-22T06:12:56;99898.09;;;9.13;65.55
81387;BME280;70842;50.744;7.114;2023-12-22T06:15:24;99902.75;;;9.30;65.20
81387;BME280;70842;50.744;7.114;2023-12-22T06:17:50;99901.66;;;9.32;64.95
81387;BME280;70842;50.744;7.114;2023-12-22T06:20:17;99902.00;;;9.18;65.07
81387;BME280;70842;50.744;7.114;2023-12-22T06:22:43;99899.09;;;9.12;65.29
81387;BME280;70842;50.744;7.114;2023-12-22T06:25:10;99919.38;;;9.11;64.34
81387;BME280;70842;50.744;7.114;2023-12-22T06:27:36;99902.06;;;9.28;64.50
81387;BME280;70842;50.744;7.114;2023-12-22T06:30:04;99911.44;;;9.41;64.60
81387;BME280;70842;50.744;7.114;2023-12-22T06:32:31;99913.28;;;9.20;65.42
81387;BME280;70842;50.744;7.114;2023-12-22T06:34:59;99922.59;;;9.15;66.50
81387;BME280;70842;50.744;7.114;2023-12-22T06:37:26;99933.59;;;9.20;66.20
81387;BME280;70842;50.744;7.114;2023-12-22T06:39:53;99919.94;;;9.15;67.25
81387;BME280;70842;50.744;7.114;2023-12-22T06:42:19;99926.13;;;8.95;67.95
81387;BME280;70842;50.744;7.114;2023-12-22T06:44:46;99922.34;;;9.18;68.21
81387;BME280;70842;50.744;7.114;2023-12-22T06:47:12;99919.69;;;8.88;68.96
81387;BME280;70842;50.744;7.114;2023-12-22T06:49:39;99909.75;;;9.01;69.21
81387;BME280;70842;50.744;7.114;2023-12-22T06:52:05;99927.06;;;8.84;69.99
81387;BME280;70842;50.744;7.114;2023-12-22T06:54:32;99935.31;;;9.00;69.48
81387;BME280;70842;50.744;7.114;2023-12-22T06:56:58;99936.88;;;9.03;70.14
81387;BME280;70842;50.744;7.114;2023-12-22T06:59:25;99929.97;;;8.91;69.48
81387;BME280;70842;50.744;7.114;2023-12-22T07:01:53;99911.44;;;8.81;69.64
81387;BME280;70842;50.744;7.114;2023-12-22T07:04:35;99938.25;;;8.77;69.28
81387;BME280;70842;50.744;7.114;2023-12-22T07:07:02;99954.03;;;8.88;69.80
81387;BME280;70842;50.744;7.114;2023-12-22T07:09:30;99966.13;;;8.70;70.28
81387;BME280;70842;50.744;7.114;2023-12-22T07:11:57;99940.72;;;8.69;71.00
81387;BME280;70842;50.744;7.114;2023-12-22T07:14:23;99954.94;;;8.77;71.33
81387;BME280;70842;50.744;7.114;2023-12-22T07:16:50;99944.06;;;8.71;71.82
81387;BME280;70842;50.744;7.114;2023-12-22T07:19:16;99944.00;;;8.82;71.35
81387;BME280;70842;50.744;7.114;2023-12-22T07:21:42;99933.97;;;8.76;71.61
81387;BME280;70842;50.744;7.114;2023-12-22T07:24:12;99943.72;;;8.85;71.39
81387;BME280;70842;50.744;7.114;2023-12-22T07:26:41;99952.66;;;8.93;71.03
81387;BME280;70842;50.744;7.114;2023-12-22T07:29:08;99935.84;;;8.94;71.37
81387;BME280;70842;50.744;7.114;2023-12-22T07:31:34;99932.63;;;8.91;71.22
81387;BME280;70842;50.744;7.114;2023-12-22T07:34:01;99938.84;;;8.59;71.88
81387;BME280;70842;50.744;7.114;2023-12-22T07:36:27;99961.00;;;8.47;72.48
81387;BME280;70842;50.744;7.114;2023-12-22T07:38:54;99943.31;;;8.89;71.91
81387;BME280;70842;50.744;7.114;2023-12-22T07:41:23;99960.06;;;8.99;71.69
81387;BME280;70842;50.744;7.114;2023-12-22T07:43:49;99948.47;;;9.21;71.08
81387;BME280;70842;50.744;7.114;2023-12-22T07:46:17;99952.03;;;8.80;71.89
81387;BME280;70842;50.744;7.114;2023-12-22T07:48:45;99956.25;;;8.62;71.92
81387;BME280;70842;50.744;7.114;2023-12-22T07:51:11;99935.56;;;9.18;71.84
81387;BME280;70842;50.744;7.114;2023-12-22T07:53:38;99931.91;;;9.19;70.99
81387;BME280;70842;50.744;7.114;2023-12-22T07:56:05;99927.53;;;8.78;72.50
81387;BME280;70842;50.744;7.114;2023-12-22T07:58:34;99935.72;;;8.96;72.59
81387;BME280;70842;50.744;7.114;2023-12-22T08:01:01;99929.28;;;8.89;73.13
81387;BME280;70842;50.744;7.114;2023-12-22T08:03:27;99932.50;;;8.72;74.06
81387;BME280;70842;50.744;7.114;2023-12-22T08:05:54;99939.75;;;9.00;74.16
81387;BME280;70842;50.744;7.114;2023-12-22T08:08:20;99937.19;;;8.89;74.46
81387;BME280;70842;50.744;7.114;2023-12-22T08:10:47;99937.88;;;8.81;74.05
81387;BME280;70842;50.744;7.114;2023-12-22T08:13:14;99946.69;;;8.71;74.31
81387;BME280;70842;50.744;7.114;2023-12-22T08:15:41;99927.09;;;8.94;72.87
81387;BME280;70842;50.744;7.114;2023-12-22T08:18:07;99921.88;;;9.13;72.24
81387;BME280;70842;50.744;7.114;2023-12-22T08:20:34;99920.16;;;8.93;72.66
81387;BME280;70842;50.744;7.114;2023-12-22T08:23:06;99909.75;;;9.01;72.15
81387;BME280;70842;50.744;7.114;2023-12-22T08:25:37;99911.16;;;9.14;72.20
81387;BME280;70842;50.744;7.114;2023-12-22T08:28:05;99900.59;;;9.14;71.40
81387;BME280;70842;50.744;7.114;2023-12-22T08:30:32;99916.59;;;9.13;71.29
81387;BME280;70842;50.744;7.114;2023-12-22T08:32:58;99934.41;;;9.11;71.06
81387;BME280;70842;50.744;7.114;2023-12-22T08:35:25;99940.53;;;9.51;70.21
81387;BME280;70842;50.744;7.114;2023-12-22T08:37:51;99921.13;;;9.31;70.24
81387;BME280;70842;50.744;7.114;2023-12-22T08:40:18;99927.50;;;9.29;69.63
81387;BME280;70842;50.744;7.114;2023-12-22T08:42:52;99924.19;;;9.36;69.37
81387;BME280;70842;50.744;7.114;2023-12-22T08:45:26;99930.78;;;9.52;69.16
81387;BME280;70842;50.744;7.114;2023-12-22T08:47:55;99938.41;;;9.45;69.14
81387;BME280;70842;50.744;7.114;2023-12-22T08:50:22;99953.75;;;9.61;68.25
81387;BME280;70842;50.744;7.114;2023-12-22T08:52:48;99942.47;;;9.49;68.84
81387;BME280;70842;50.744;7.114;2023-12-22T08:55:15;99943.97;;;9.42;68.62
81387;BME280;70842;50.744;7.114;2023-12-22T08:57:42;99917.75;;;9.88;67.67
81387;BME280;70842;50.744;7.114;2023-12-22T09:00:22;99905.34;;;9.70;68.54
81387;BME280;70842;50.744;7.114;2023-12-22T09:02:48;99930.00;;;9.89;68.56
81387;BME280;70842;50.744;7.114;2023-12-22T09:05:15;99913.31;;;9.98;68.01
81387;BME280;70842;50.744;7.114;2023-12-22T09:07:41;99936.53;;;9.66;68.84
81387;BME280;70842;50.744;7.114;2023-12-22T09:10:08;99937.22;;;9.78;68.33
81387;BME280;70842;50.744;7.114;2023-12-22T09:12:34;99933.88;;;9.66;68.97
81387;BME280;70842;50.744;7.114;2023-12-22T09:15:00;99920.22;;;9.61;69.11
81387;BME280;70842;50.744;7.114;2023-12-22T09:17:27;99925.41;;;9.91;68.88
81387;BME280;70842;50.744;7.114;2023-12-22T09:19:54;99929.03;;;9.90;69.22
81387;BME280;70842;50.744;7.114;2023-12-22T09:22:21;99918.44;;;9.81;68.73
81387;BME280;70842;50.744;7.114;2023-12-22T09:24:48;99913.28;;;9.60;69.69
81387;BME280;70842;50.744;7.114;2023-12-22T09:27:15;99920.13;;;9.82;69.05
81387;BME280;70842;50.744;7.114;2023-12-22T09:29:41;99907.69;;;9.63;69.85
81387;BME280;70842;50.744;7.114;2023-12-22T09:32:08;99925.78;;;9.58;69.82
81387;BME280;70842;50.744;7.114;2023-12-22T09:34:34;99896.16;;;9.64;69.70
81387;BME280;70842;50.744;7.114;2023-12-22T09:37:01;99904.25;;;9.82;68.93
81387;BME280;70842;50.744;7.114;2023-12-22T09:39:27;99900.06;;;9.89;68.87
81387;BME280;70842;50.744;7.114;2023-12-22T09:41:58;99883.66;;;9.85;69.15
81387;BME280;70842;50.744;7.114;2023-12-22T09:44:29;99890.03;;;9.73;69.68
81387;BME280;70842;50.744;7.114;2023-12-22T09:46:57;99869.13;;;9.80;68.47
81387;BME280;70842;50.744;7.114;2023-12-22T09:49:25;99880.72;;;9.98;69.38
